createdAt,value
2019-03-10T00:00:30.164Z,95074.31
2019-03-10T00:02:58.831Z,95077.66
2019-03-10T00:05:27.355Z,95083.94
2019-03-10T00:07:56.122Z,95083.50
2019-03-10T00:10:24.760Z,95089.77
2019-03-10T00:12:53.410Z,95086.73
2019-03-10T00:15:22.072Z,95084.00
2019-03-10T00:17:50.805Z,95095.14
2019-03-10T00:20:19.435Z,95092.72
2019-03-10T00:22:48.109Z,95103.23
2019-03-10T00:25:16.855Z,95102.18
2019-03-10T00:27:45.487Z,95106.45
2019-03-10T00:30:16.057Z,95110.70
2019-03-10T00:32:44.686Z,95109.02
2019-03-10T00:35:13.538Z,95104.01
2019-03-10T00:37:42.194Z,95105.22
2019-03-10T00:40:45.752Z,95105.67
2019-03-10T00:43:42.664Z,95107.04
2019-03-10T00:46:40.138Z,95095.93
2019-03-10T00:49:43.330Z,95090.89
2019-03-10T00:52:17.904Z,95092.57
2019-03-10T00:54:46.524Z,95099.70
2019-03-10T00:57:15.154Z,95102.60
2019-03-10T00:59:43.787Z,95111.89
2019-03-10T01:02:12.386Z,95105.04
2019-03-10T01:04:41.034Z,95105.80
2019-03-10T01:07:09.654Z,95107.03
2019-03-10T01:09:38.328Z,95098.18
2019-03-10T01:12:07.052Z,95107.61
2019-03-10T01:14:35.710Z,95096.03
2019-03-10T01:17:04.470Z,95089.95
2019-03-10T01:19:33.399Z,95090.58
2019-03-10T01:22:02.530Z,95095.91
2019-03-10T01:24:31.138Z,95096.81
2019-03-10T01:26:59.779Z,95097.44
2019-03-10T01:29:28.334Z,95098.95
2019-03-10T01:32:14.695Z,95102.14
2019-03-10T01:34:49.109Z,95095.45
2019-03-10T01:37:17.669Z,95098.48
2019-03-10T01:39:46.265Z,95087.98
2019-03-10T01:42:14.819Z,95091.00
2019-03-10T01:44:43.372Z,95087.35
2019-03-10T01:47:12.045Z,95079.88
2019-03-10T01:49:40.607Z,95075.17
2019-03-10T01:52:09.094Z,95068.33
2019-03-10T01:54:37.686Z,95060.09
2019-03-10T01:57:06.309Z,95057.35
2019-03-10T01:59:34.860Z,95062.67
2019-03-10T02:02:03.467Z,95059.34
2019-03-10T02:04:32.026Z,95057.63
2019-03-10T02:07:00.651Z,95057.94
2019-03-10T02:09:29.261Z,95054.59
2019-03-10T02:11:57.814Z,95053.22
2019-03-10T02:14:26.371Z,95047.74
2019-03-10T02:16:55.040Z,95052.60
2019-03-10T02:19:23.590Z,95052.92
2019-03-10T02:21:52.173Z,95053.98
2019-03-10T02:24:24.119Z,95060.53
2019-03-10T02:26:51.058Z,95056.75
2019-03-10T02:29:19.542Z,95053.69
2019-03-10T02:31:48.246Z,95059.02
2019-03-10T02:34:16.803Z,95055.66
2019-03-10T02:36:45.375Z,95066.62
2019-03-10T02:39:14.070Z,95071.05
2019-03-10T02:41:42.662Z,95077.75
2019-03-10T02:44:11.215Z,95079.11
2019-03-10T02:46:39.763Z,95092.83
2019-03-10T02:49:08.328Z,95101.20
2019-03-10T02:51:36.961Z,95102.73
2019-03-10T02:54:05.639Z,95104.11
2019-03-10T02:56:34.122Z,95112.17
2019-03-10T02:59:02.680Z,95104.86
2019-03-10T03:01:31.353Z,95116.45
2019-03-10T03:03:59.905Z,95112.02
2019-03-10T03:06:28.535Z,95111.27
2019-03-10T03:08:57.194Z,95111.70
2019-03-10T03:11:25.703Z,95104.33
2019-03-10T03:13:54.329Z,95109.55
2019-03-10T03:16:22.994Z,95114.31
2019-03-10T03:18:51.545Z,95115.59
2019-03-10T03:21:20.041Z,95108.48
2019-03-10T03:23:48.691Z,95106.59
2019-03-10T03:26:17.466Z,95106.59
2019-03-10T03:28:45.967Z,95090.78
2019-03-10T03:31:14.588Z,95087.69
2019-03-10T03:33:43.157Z,95088.91
2019-03-10T03:36:17.402Z,95093.91
2019-03-10T03:38:49.311Z,95094.86
2019-03-10T03:41:23.420Z,95101.44
2019-03-10T03:43:52.048Z,95103.95
2019-03-10T03:46:20.651Z,95096.52
2019-03-10T03:48:49.215Z,95106.61
2019-03-10T03:51:17.831Z,95108.31
2019-03-10T03:53:46.434Z,95111.84
2019-03-10T03:56:14.929Z,95101.63
2019-03-10T03:58:43.476Z,95111.20
2019-03-10T04:01:22.711Z,95110.70
2019-03-10T04:03:51.273Z,95116.05
2019-03-10T04:06:20.096Z,95118.45
2019-03-10T04:08:48.685Z,95118.11
2019-03-10T04:11:17.309Z,95120.02
2019-03-10T04:13:45.868Z,95116.41
2019-03-10T04:16:14.434Z,95113.08
2019-03-10T04:18:43.000Z,95110.34
2019-03-10T04:21:11.599Z,95114.58
2019-03-10T04:23:40.151Z,95123.78
2019-03-10T04:26:08.777Z,95127.17
2019-03-10T04:28:37.329Z,95121.40
2019-03-10T04:31:05.819Z,95121.81
2019-03-10T04:33:34.379Z,95130.56
2019-03-10T04:36:03.009Z,95137.84
2019-03-10T04:38:31.684Z,95139.77
2019-03-10T04:41:00.199Z,95140.40
2019-03-10T04:43:28.831Z,95135.34
2019-03-10T04:45:57.489Z,95143.16
2019-03-10T04:48:26.046Z,95145.32
2019-03-10T04:50:54.549Z,95136.14
2019-03-10T04:53:23.094Z,95147.69
2019-03-10T04:55:56.064Z,95147.78
2019-03-10T04:58:25.831Z,95134.77
2019-03-10T05:00:56.026Z,95146.61
2019-03-10T05:03:24.653Z,95156.30
2019-03-10T05:05:53.265Z,95154.47
2019-03-10T05:08:21.894Z,95154.15
2019-03-10T05:10:50.463Z,95153.17
2019-03-10T05:13:19.052Z,95145.68
2019-03-10T05:15:47.680Z,95155.44
2019-03-10T05:18:16.363Z,95162.88
2019-03-10T05:20:44.945Z,95173.53
2019-03-10T05:23:28.694Z,95174.11
2019-03-10T05:25:57.562Z,95179.06
2019-03-10T05:28:26.186Z,95183.47
2019-03-10T05:30:54.755Z,95186.95
2019-03-10T05:33:23.354Z,95188.84
2019-03-10T05:35:51.984Z,95193.55
2019-03-10T05:38:20.545Z,95193.69
2019-03-10T05:40:49.155Z,95197.31
2019-03-10T05:43:17.715Z,95191.41
2019-03-10T05:45:46.210Z,95197.42
2019-03-10T05:48:14.817Z,95192.88
2019-03-10T05:50:43.481Z,95203.27
2019-03-10T05:53:12.109Z,95200.20
2019-03-10T05:55:40.776Z,95206.03
2019-03-10T05:58:09.352Z,95214.73
2019-03-10T06:00:42.743Z,95225.97
2019-03-10T06:03:08.308Z,95239.14
2019-03-10T06:05:36.808Z,95249.92
2019-03-10T06:08:05.520Z,95244.89
2019-03-10T06:10:34.192Z,95256.72
2019-03-10T06:13:02.816Z,95264.64
2019-03-10T06:15:31.365Z,95272.70
2019-03-10T06:17:59.977Z,95280.36
2019-03-10T06:20:28.536Z,95278.27
2019-03-10T06:22:57.154Z,95284.02
2019-03-10T06:25:25.832Z,95282.84
2019-03-10T06:27:54.463Z,95285.46
2019-03-10T06:30:22.962Z,95286.97
2019-03-10T06:32:51.564Z,95292.77
2019-03-10T06:35:20.191Z,95309.37
2019-03-10T06:37:48.761Z,95314.91
2019-03-10T06:40:17.374Z,95312.25
2019-03-10T06:42:45.932Z,95312.89
2019-03-10T06:45:14.584Z,95309.99
2019-03-10T06:47:43.184Z,95305.20
2019-03-10T06:50:12.572Z,95300.89
2019-03-10T06:52:41.318Z,95303.41
2019-03-10T06:55:09.982Z,95301.97
2019-03-10T06:57:38.541Z,95292.88
2019-03-10T07:00:10.090Z,95313.31
2019-03-10T07:02:38.687Z,95301.80
2019-03-10T07:05:09.518Z,95297.39
2019-03-10T07:07:38.148Z,95301.38
2019-03-10T07:10:12.457Z,95305.12
2019-03-10T07:12:41.047Z,95307.59
2019-03-10T07:15:11.676Z,95308.14
2019-03-10T07:17:40.357Z,95315.84
2019-03-10T07:20:14.899Z,95311.89
2019-03-10T07:23:00.982Z,95314.44
2019-03-10T07:25:29.576Z,95311.08
2019-03-10T07:28:06.002Z,95316.70
2019-03-10T07:30:39.065Z,95326.53
2019-03-10T07:33:12.232Z,95322.05
2019-03-10T07:35:58.998Z,95326.28
2019-03-10T07:38:29.199Z,95323.89
2019-03-10T07:40:59.397Z,95309.80
2019-03-10T07:43:35.411Z,95326.42
2019-03-10T07:46:11.635Z,95319.23
2019-03-10T07:48:41.882Z,95314.08
2019-03-10T07:51:21.124Z,95312.55
2019-03-10T07:53:51.337Z,95307.33
2019-03-10T07:56:27.586Z,95299.64
2019-03-10T07:59:13.007Z,95300.72
2019-03-10T08:01:48.928Z,95294.02
2019-03-10T08:04:24.890Z,95298.42
2019-03-10T08:06:55.162Z,95297.91
2019-03-10T08:09:28.010Z,95287.58
2019-03-10T08:11:58.210Z,95288.82
2019-03-10T08:14:34.420Z,95282.87
2019-03-10T08:17:04.742Z,95288.84
2019-03-10T08:19:41.170Z,95288.66
2019-03-10T08:22:14.508Z,95284.13
2019-03-10T08:24:44.761Z,95276.95
2019-03-10T08:27:20.499Z,95270.19
2019-03-10T08:30:06.909Z,95262.60
2019-03-10T08:32:46.267Z,95262.44
2019-03-10T08:35:19.198Z,95255.26
2019-03-10T08:37:49.337Z,95254.81
2019-03-10T08:40:31.579Z,95251.30
2019-03-10T08:43:05.022Z,95252.55
2019-03-10T08:45:38.214Z,95250.56
2019-03-10T08:48:17.380Z,95250.12
2019-03-10T08:50:50.281Z,95244.91
2019-03-10T08:53:32.187Z,95255.10
2019-03-10T08:56:17.592Z,95253.13
2019-03-10T08:58:59.525Z,95248.11
2019-03-10T09:01:35.656Z,95239.53
2019-03-10T09:04:05.929Z,95239.48
2019-03-10T09:06:36.132Z,95238.19
2019-03-10T09:09:08.441Z,95230.69
2019-03-10T09:11:44.884Z,95237.64
2019-03-10T09:14:15.052Z,95242.63
2019-03-10T09:17:00.669Z,95235.86
2019-03-10T09:19:30.981Z,95227.56
2019-03-10T09:22:03.593Z,95230.36
2019-03-10T09:24:45.932Z,95230.63
2019-03-10T09:27:16.145Z,95228.48
2019-03-10T09:29:52.416Z,95208.14
2019-03-10T09:32:36.774Z,95209.91
2019-03-10T09:35:24.049Z,95203.48
2019-03-10T09:38:09.152Z,95183.78
2019-03-10T09:40:39.422Z,95172.91
2019-03-10T09:43:18.504Z,95169.30
2019-03-10T09:45:48.832Z,95171.92
2019-03-10T09:48:31.388Z,95164.44
2019-03-10T09:51:10.415Z,95166.66
2019-03-10T09:53:46.685Z,95163.05
2019-03-10T09:56:19.628Z,95173.96
2019-03-10T09:58:49.933Z,95177.13
2019-03-10T10:01:20.066Z,95167.89
2019-03-10T10:03:50.263Z,95165.27
2019-03-10T10:06:36.979Z,95159.18
2019-03-10T10:09:25.515Z,95163.33
2019-03-10T10:12:12.697Z,95152.00
2019-03-10T10:14:33.702Z,95147.93
2019-03-10T10:17:04.024Z,95148.90
2019-03-10T10:19:49.489Z,95153.84
2019-03-10T10:22:25.564Z,95145.56
2019-03-10T10:24:58.677Z,95153.43
2019-03-10T10:27:31.822Z,95145.95
2019-03-10T10:30:05.241Z,95150.16
2019-03-10T10:32:47.671Z,95148.80
2019-03-10T10:35:17.879Z,95141.22
2019-03-10T10:38:06.315Z,95126.67
2019-03-10T10:40:54.533Z,95128.59
2019-03-10T10:43:36.487Z,95124.88
2019-03-10T10:46:23.252Z,95123.36
2019-03-10T10:48:53.572Z,95124.94
2019-03-10T10:51:27.034Z,95119.23
2019-03-10T10:54:12.680Z,95120.03
2019-03-10T10:56:42.941Z,95120.94
2019-03-10T10:59:25.246Z,95113.10
2019-03-10T11:01:55.504Z,95114.76
2019-03-10T11:04:37.835Z,95108.66
2019-03-10T11:07:08.046Z,95102.78
2019-03-10T11:09:56.651Z,95094.89
2019-03-10T11:12:29.903Z,95089.92
2019-03-10T11:15:09.194Z,95079.81
2019-03-10T11:17:42.124Z,95082.83
2019-03-10T11:20:21.815Z,95078.31
2019-03-10T11:22:52.005Z,95069.80
2019-03-10T11:25:25.291Z,95065.55
2019-03-10T11:27:55.538Z,95046.81
2019-03-10T11:30:44.067Z,95050.66
2019-03-10T11:33:27.666Z,95036.88
2019-03-10T11:36:14.432Z,95028.19
2019-03-10T11:38:44.680Z,95036.39
2019-03-10T11:41:33.814Z,95024.37
2019-03-10T11:44:01.870Z,95021.20
2019-03-10T11:46:35.112Z,95012.28
2019-03-10T11:49:17.406Z,95016.72
2019-03-10T11:51:50.375Z,95009.88
2019-03-10T11:54:29.612Z,95001.02
2019-03-10T11:57:16.072Z,94986.29
2019-03-10T11:59:46.318Z,94984.81
2019-03-10T12:02:19.560Z,94981.36
2019-03-10T12:04:56.559Z,94970.91
2019-03-10T12:07:41.463Z,94971.95
2019-03-10T12:10:12.935Z,94966.97
2019-03-10T12:12:41.622Z,94956.91
2019-03-10T12:15:12.839Z,94954.38
2019-03-10T12:17:41.327Z,94947.86
2019-03-10T12:20:12.305Z,94943.89
2019-03-10T12:22:40.939Z,94941.61
2019-03-10T12:25:13.944Z,94927.81
2019-03-10T12:27:42.527Z,94925.84
2019-03-10T12:30:13.254Z,94918.85
2019-03-10T12:32:41.836Z,94911.92
2019-03-10T12:35:10.511Z,94904.20
2019-03-10T12:37:39.137Z,94901.09
2019-03-10T12:40:12.338Z,94896.05
2019-03-10T12:42:41.020Z,94881.00
2019-03-10T12:45:11.342Z,94873.03
2019-03-10T12:47:49.281Z,94877.78
2019-03-10T12:50:18.851Z,94872.03
2019-03-10T12:52:47.737Z,94859.04
2019-03-10T12:55:16.373Z,94849.10
2019-03-10T12:57:45.001Z,94838.47
2019-03-10T13:00:15.756Z,94834.92
2019-03-10T13:02:44.386Z,94822.38
2019-03-10T13:05:13.022Z,94826.88
2019-03-10T13:07:41.695Z,94815.59
2019-03-10T13:10:12.601Z,94802.87
2019-03-10T13:12:40.679Z,94802.37
2019-03-10T13:15:13.222Z,94792.73
2019-03-10T13:17:41.851Z,94798.69
2019-03-10T13:20:11.876Z,94795.31
2019-03-10T13:22:40.615Z,94789.44
2019-03-10T13:25:12.576Z,94772.35
2019-03-10T13:27:41.344Z,94768.91
2019-03-10T13:30:12.486Z,94758.54
2019-03-10T13:32:41.171Z,94756.89
2019-03-10T13:35:10.335Z,94752.00
2019-03-10T13:37:38.899Z,94753.07
2019-03-10T13:40:10.304Z,94745.80
2019-03-10T13:42:38.913Z,94737.44
2019-03-10T13:45:10.451Z,94730.78
2019-03-10T13:47:45.009Z,94712.23
2019-03-10T13:50:15.711Z,94722.12
2019-03-10T13:52:44.436Z,94716.03
2019-03-10T13:55:13.213Z,94710.78
2019-03-10T13:57:41.775Z,94701.45
2019-03-10T14:00:20.554Z,94695.27
2019-03-10T14:02:49.181Z,94697.11
2019-03-10T14:05:17.749Z,94690.45
2019-03-10T14:07:46.429Z,94691.47
2019-03-10T14:10:15.220Z,94696.03
2019-03-10T14:12:43.849Z,94700.82
2019-03-10T14:15:16.711Z,94691.73
2019-03-10T14:17:45.272Z,94692.28
2019-03-10T14:20:15.332Z,94697.42
2019-03-10T14:22:43.988Z,94684.97
2019-03-10T14:25:14.321Z,94660.87
2019-03-10T14:27:42.952Z,94686.91
2019-03-10T14:30:16.806Z,94675.63
2019-03-10T14:32:45.369Z,94681.19
2019-03-10T14:35:14.703Z,94673.50
2019-03-10T14:37:43.364Z,94663.23
2019-03-10T14:40:19.859Z,94665.13
2019-03-10T14:42:48.534Z,94666.52
2019-03-10T14:45:18.267Z,94659.38
2019-03-10T14:47:46.894Z,94659.70
2019-03-10T14:50:17.586Z,94657.33
2019-03-10T14:52:46.218Z,94654.65
2019-03-10T14:55:20.595Z,94655.26
2019-03-10T14:57:49.272Z,94644.38
2019-03-10T15:00:21.042Z,94641.84
2019-03-10T15:02:49.715Z,94642.20
2019-03-10T15:05:18.403Z,94649.95
2019-03-10T15:07:47.031Z,94638.59
2019-03-10T15:10:16.069Z,94644.97
2019-03-10T15:12:44.944Z,94638.22
2019-03-10T15:15:22.202Z,94645.84
2019-03-10T15:17:46.012Z,94650.31
2019-03-10T15:20:16.095Z,94649.47
2019-03-10T15:22:44.728Z,94635.81
2019-03-10T15:25:15.712Z,94635.30
2019-03-10T15:27:44.233Z,94635.93
2019-03-10T15:30:15.771Z,94623.12
2019-03-10T15:32:44.415Z,94621.88
2019-03-10T15:35:13.727Z,94624.00
2019-03-10T15:37:42.354Z,94624.63
2019-03-10T15:40:16.808Z,94621.00
2019-03-10T15:42:45.598Z,94625.09
2019-03-10T15:45:16.266Z,94615.06
2019-03-10T15:47:45.097Z,94623.18
2019-03-10T15:50:19.114Z,94621.03
2019-03-10T15:52:47.760Z,94617.09
2019-03-10T15:55:16.315Z,94609.98
2019-03-10T15:57:50.174Z,94602.82
2019-03-10T16:00:17.639Z,94597.97
2019-03-10T16:02:46.268Z,94608.45
2019-03-10T16:05:14.936Z,94612.78
2019-03-10T16:07:43.596Z,94604.28
2019-03-10T16:10:14.335Z,94600.98
2019-03-10T16:12:43.177Z,94592.23
2019-03-10T16:15:20.284Z,94596.84
2019-03-10T16:17:48.925Z,94601.08
2019-03-10T16:20:17.652Z,94595.63
2019-03-10T16:22:46.339Z,94584.59
2019-03-10T16:25:16.267Z,94588.22
2019-03-10T16:27:44.894Z,94591.49
2019-03-10T16:30:27.327Z,94589.63
2019-03-10T16:32:55.985Z,94580.86
2019-03-10T16:35:24.720Z,94583.16
2019-03-10T16:37:53.391Z,94581.20
2019-03-10T16:40:22.536Z,94575.45
2019-03-10T16:42:51.108Z,94586.77
2019-03-10T16:45:23.564Z,94586.77
2019-03-10T16:47:52.398Z,94589.87
2019-03-10T16:50:23.184Z,94585.80
2019-03-10T16:52:51.857Z,94581.16
2019-03-10T16:55:20.590Z,94573.45
2019-03-10T16:57:49.317Z,94579.20
2019-03-10T17:00:20.149Z,94570.39
2019-03-10T17:02:49.378Z,94575.26
2019-03-10T17:05:21.752Z,94571.89
2019-03-10T17:07:50.623Z,94566.94
2019-03-10T17:10:23.750Z,94559.91
2019-03-10T17:12:52.381Z,94555.65
2019-03-10T17:15:24.735Z,94551.84
2019-03-10T17:17:53.469Z,94535.23
2019-03-10T17:20:22.301Z,94551.45
2019-03-10T17:22:50.943Z,94548.39
2019-03-10T17:25:19.526Z,94542.59
2019-03-10T17:27:48.215Z,94537.45
2019-03-10T17:30:19.762Z,94533.91
2019-03-10T17:32:48.388Z,94528.21
2019-03-10T17:35:19.071Z,94538.11
2019-03-10T17:37:48.679Z,94528.41
2019-03-10T17:40:18.814Z,94521.30
2019-03-10T17:42:47.484Z,94514.81
2019-03-10T17:45:20.459Z,94514.46
2019-03-10T17:47:49.027Z,94520.01
2019-03-10T17:50:18.898Z,94512.32
2019-03-10T17:52:48.330Z,94502.08
2019-03-10T17:55:19.105Z,94505.52
2019-03-10T17:57:47.980Z,94502.27
2019-03-10T18:00:22.027Z,94505.80
2019-03-10T18:02:50.586Z,94503.53
2019-03-10T18:05:19.259Z,94498.33
2019-03-10T18:07:48.094Z,94492.56
2019-03-10T18:10:18.505Z,94496.75
2019-03-10T18:12:47.186Z,94486.70
2019-03-10T18:15:17.890Z,94484.41
2019-03-10T18:17:46.527Z,94486.55
2019-03-10T18:20:16.891Z,94484.41
2019-03-10T18:22:48.390Z,94469.63
2019-03-10T18:25:17.234Z,94469.34
2019-03-10T18:27:45.900Z,94467.61
2019-03-10T18:30:27.515Z,94459.26
2019-03-10T18:32:56.171Z,94462.38
2019-03-10T18:35:24.856Z,94464.30
2019-03-10T18:37:53.487Z,94457.88
2019-03-10T18:40:26.142Z,94456.48
2019-03-10T18:42:54.903Z,94456.83
2019-03-10T18:45:23.537Z,94455.73
2019-03-10T18:47:52.178Z,94460.93
2019-03-10T18:50:24.424Z,94457.53
2019-03-10T18:52:53.130Z,94454.75
2019-03-10T18:55:22.086Z,94454.91
2019-03-10T18:57:50.771Z,94445.50
2019-03-10T19:00:21.945Z,94451.33
2019-03-10T19:02:50.703Z,94451.02
2019-03-10T19:05:19.363Z,94445.00
2019-03-10T19:07:48.001Z,94437.47
2019-03-10T19:10:16.640Z,94441.92
2019-03-10T19:12:45.422Z,94450.48
2019-03-10T19:15:21.506Z,94448.12
2019-03-10T19:17:50.208Z,94440.88
2019-03-10T19:20:18.910Z,94438.48
2019-03-10T19:22:47.548Z,94445.56
2019-03-10T19:25:17.123Z,94450.72
2019-03-10T19:27:45.772Z,94440.76
2019-03-10T19:30:22.287Z,94443.60
2019-03-10T19:32:50.933Z,94435.97
2019-03-10T19:35:19.654Z,94435.91
2019-03-10T19:37:48.454Z,94442.98
2019-03-10T19:40:24.711Z,94434.89
2019-03-10T19:42:53.395Z,94430.58
2019-03-10T19:45:25.188Z,94433.38
2019-03-10T19:47:53.775Z,94421.19
2019-03-10T19:50:27.959Z,94424.52
2019-03-10T19:52:56.654Z,94405.16
2019-03-10T19:55:25.282Z,94415.33
2019-03-10T19:57:53.916Z,94424.60
2019-03-10T20:00:22.881Z,94421.77
2019-03-10T20:02:51.429Z,94426.50
2019-03-10T20:05:20.069Z,94424.84
2019-03-10T20:07:48.732Z,94424.93
2019-03-10T20:10:24.130Z,94416.88
2019-03-10T20:12:52.912Z,94410.17
2019-03-10T20:15:22.781Z,94420.36
2019-03-10T20:17:51.414Z,94418.77
2019-03-10T20:20:25.714Z,94424.09
2019-03-10T20:22:54.240Z,94427.88
2019-03-10T20:25:22.875Z,94424.64
2019-03-10T20:27:51.534Z,94425.08
2019-03-10T20:30:29.677Z,94421.93
2019-03-10T20:32:58.317Z,94417.78
2019-03-10T20:35:26.881Z,94415.63
2019-03-10T20:37:55.558Z,94409.97
2019-03-10T20:40:25.716Z,94399.52
2019-03-10T20:42:54.347Z,94397.83
2019-03-10T20:45:24.494Z,94406.13
2019-03-10T20:47:56.053Z,94404.11
2019-03-10T20:50:23.673Z,94413.94
2019-03-10T20:52:53.052Z,94404.27
2019-03-10T20:55:21.629Z,94411.28
2019-03-10T20:57:50.190Z,94411.41
2019-03-10T21:00:23.506Z,94418.08
2019-03-10T21:02:52.229Z,94430.02
2019-03-10T21:05:20.798Z,94422.34
2019-03-10T21:07:49.416Z,94418.32
2019-03-10T21:10:20.382Z,94429.42
2019-03-10T21:12:48.999Z,94425.15
2019-03-10T21:15:18.866Z,94431.34
2019-03-10T21:17:47.432Z,94426.83
2019-03-10T21:20:17.566Z,94428.05
2019-03-10T21:22:46.346Z,94428.31
2019-03-10T21:25:23.223Z,94418.67
2019-03-10T21:27:51.850Z,94416.03
2019-03-10T21:30:25.986Z,94418.44
2019-03-10T21:32:54.614Z,94427.88
2019-03-10T21:35:23.288Z,94416.81
2019-03-10T21:37:51.800Z,94421.48
2019-03-10T21:40:26.241Z,94418.84
2019-03-10T21:42:54.904Z,94407.81
2019-03-10T21:45:23.539Z,94417.47
2019-03-10T21:47:52.168Z,94420.26
2019-03-10T21:50:27.112Z,94421.64
2019-03-10T21:52:55.744Z,94424.28
2019-03-10T21:55:24.380Z,94425.64
2019-03-10T21:57:53.049Z,94428.03
2019-03-10T22:00:21.611Z,94435.28
2019-03-10T22:02:50.200Z,94428.37
2019-03-10T22:05:18.973Z,94432.75
2019-03-10T22:07:47.616Z,94438.02
2019-03-10T22:10:26.101Z,94445.19
2019-03-10T22:12:48.266Z,94448.08
2019-03-10T22:15:21.405Z,94450.44
2019-03-10T22:17:50.025Z,94451.31
2019-03-10T22:20:20.559Z,94457.45
2019-03-10T22:22:50.182Z,94463.95
2019-03-10T22:25:19.061Z,94461.54
2019-03-10T22:27:47.730Z,94463.16
2019-03-10T22:30:19.350Z,94460.98
2019-03-10T22:32:48.056Z,94468.78
2019-03-10T22:35:16.741Z,94475.73
2019-03-10T22:37:45.500Z,94479.97
2019-03-10T22:40:15.336Z,94482.72
2019-03-10T22:42:44.008Z,94486.91
2019-03-10T22:45:16.610Z,94492.31
2019-03-10T22:47:45.102Z,94494.02
2019-03-10T22:50:14.584Z,94494.98
2019-03-10T22:52:43.311Z,94492.22
2019-03-10T22:55:14.971Z,94490.34
2019-03-10T22:57:43.587Z,94488.16
2019-03-10T23:00:27.785Z,94494.89
2019-03-10T23:02:56.527Z,94494.83
2019-03-10T23:05:25.019Z,94484.04
2019-03-10T23:07:53.507Z,94485.88
2019-03-10T23:10:22.176Z,94488.99
2019-03-10T23:12:50.672Z,94500.14
2019-03-10T23:15:19.335Z,94496.35
2019-03-10T23:17:47.981Z,94490.06
2019-03-10T23:20:17.118Z,94488.09
2019-03-10T23:22:45.674Z,94489.35
2019-03-10T23:25:14.461Z,94490.45
2019-03-10T23:27:43.274Z,94486.54
2019-03-10T23:30:17.873Z,94475.81
2019-03-10T23:32:46.554Z,94486.82
2019-03-10T23:35:15.526Z,94488.61
2019-03-10T23:37:44.151Z,94493.72
2019-03-10T23:40:15.100Z,94506.79
2019-03-10T23:42:43.723Z,94503.64
2019-03-10T23:45:17.092Z,94509.69
2019-03-10T23:47:45.770Z,94503.56
2019-03-10T23:50:16.016Z,94508.02
2019-03-10T23:52:44.648Z,94508.56
2019-03-10T23:55:14.029Z,94521.63
2019-03-10T23:57:42.578Z,94521.09
